sensor_id;sensor_type;location;lat;lon;timestamp;temperature;humidity
12520;DHT22;6325;49.540;8.364;2022-08-06T00:01:44;19.80;99.90
12520;DHT22;6325;49.540;8.364;2022-08-06T00:04:11;19.70;99.90
12520;DHT22;6325;49.540;8.364;2022-08-06T00:06:38;20.20;99.90
12520;DHT22;6325;49.540;8.364;2022-08-06T00:09:05;19.40;99.90
12520;DHT22;6325;49.540;8.364;2022-08-06T00:11:32;19.50;99.90
12520;DHT22;6325;49.540;8.364;2022-08-06T00:13:59;19.50;99.90
12520;DHT22;6325;49.540;8.364;2022-08-06T00:16:26;19.20;99.90
12520;DHT22;6325;49.540;8.364;2022-08-06T00:18:54;20.10;99.90
12520;DHT22;6325;49.540;8.364;2022-08-06T00:21:21;20.00;99.90
12520;DHT22;6325;49.540;8.364;2022-08-06T00:23:48;19.40;99.90
12520;DHT22;6325;49.540;8.364;2022-08-06T00:26:15;18.90;99.90
12520;DHT22;6325;49.540;8.364;2022-08-06T00:28:42;19.40;99.90
12520;DHT22;6325;49.540;8.364;2022-08-06T00:31:09;19.30;99.90
12520;DHT22;6325;49.540;8.364;2022-08-06T00:33:36;18.80;99.90
12520;DHT22;6325;49.540;8.364;2022-08-06T00:36:05;19.20;99.90
12520;DHT22;6325;49.540;8.364;2022-08-06T00:38:32;19.00;99.90
12520;DHT22;6325;49.540;8.364;2022-08-06T00:40:59;19.20;99.90
12520;DHT22;6325;49.540;8.364;2022-08-06T00:43:26;18.90;99.90
12520;DHT22;6325;49.540;8.364;2022-08-06T00:45:53;19.20;99.90
12520;DHT22;6325;49.540;8.364;2022-08-06T00:48:20;19.40;99.90
12520;DHT22;6325;49.540;8.364;2022-08-06T00:50:47;19.20;99.90
12520;DHT22;6325;49.540;8.364;2022-08-06T00:53:16;19.20;99.90
12520;DHT22;6325;49.540;8.364;2022-08-06T00:55:43;19.10;99.90
12520;DHT22;6325;49.540;8.364;2022-08-06T00:58:10;19.00;99.90
12520;DHT22;6325;49.540;8.364;2022-08-06T01:00:37;18.80;99.90
12520;DHT22;6325;49.540;8.364;2022-08-06T01:03:03;19.00;99.90
12520;DHT22;6325;49.540;8.364;2022-08-06T01:05:31;19.10;99.90
12520;DHT22;6325;49.540;8.364;2022-08-06T01:07:57;19.00;99.90
12520;DHT22;6325;49.540;8.364;2022-08-06T01:10:26;19.00;99.90
12520;DHT22;6325;49.540;8.364;2022-08-06T01:12:53;18.90;99.90
12520;DHT22;6325;49.540;8.364;2022-08-06T01:15:20;18.60;99.90
12520;DHT22;6325;49.540;8.364;2022-08-06T01:17:51;18.90;99.90
12520;DHT22;6325;49.540;8.364;2022-08-06T01:20:33;18.90;99.90
12520;DHT22;6325;49.540;8.364;2022-08-06T01:23:27;18.80;99.90
12520;DHT22;6325;49.540;8.364;2022-08-06T01:26:23;18.90;99.90
12520;DHT22;6325;49.540;8.364;2022-08-06T01:29:00;18.80;99.90
12520;DHT22;6325;49.540;8.364;2022-08-06T01:31:32;19.00;99.90
12520;DHT22;6325;49.540;8.364;2022-08-06T01:34:07;18.40;99.90
12520;DHT22;6325;49.540;8.364;2022-08-06T01:36:39;18.70;99.90
12520;DHT22;6325;49.540;8.364;2022-08-06T01:39:07;19.10;99.90
12520;DHT22;6325;49.540;8.364;2022-08-06T01:41:45;18.70;99.90
12520;DHT22;6325;49.540;8.364;2022-08-06T01:44:17;18.80;99.90
12520;DHT22;6325;49.540;8.364;2022-08-06T01:46:47;18.60;99.90
12520;DHT22;6325;49.540;8.364;2022-08-06T01:49:19;18.60;99.90
12520;DHT22;6325;49.540;8.364;2022-08-06T01:51:49;18.20;99.90
12520;DHT22;6325;49.540;8.364;2022-08-06T01:54:18;18.70;99.90
12520;DHT22;6325;49.540;8.364;2022-08-06T01:56:48;18.00;99.90
12520;DHT22;6325;49.540;8.364;2022-08-06T01:59:21;18.90;99.90
12520;DHT22;6325;49.540;8.364;2022-08-06T02:01:54;18.40;99.90
12520;DHT22;6325;49.540;8.364;2022-08-06T02:04:25;18.80;99.90
12520;DHT22;6325;49.540;8.364;2022-08-06T02:06:54;18.50;99.90
12520;DHT22;6325;49.540;8.364;2022-08-06T02:09:22;18.30;99.90
12520;DHT22;6325;49.540;8.364;2022-08-06T02:11:53;18.70;99.90
12520;DHT22;6325;49.540;8.364;2022-08-06T02:14:24;17.90;99.90
12520;DHT22;6325;49.540;8.364;2022-08-06T02:16:53;18.80;99.90
12520;DHT22;6325;49.540;8.364;2022-08-06T02:19:23;18.30;99.90
12520;DHT22;6325;49.540;8.364;2022-08-06T02:21:51;18.50;99.90
12520;DHT22;6325;49.540;8.364;2022-08-06T02:24:21;17.70;99.90
12520;DHT22;6325;49.540;8.364;2022-08-06T02:26:50;18.40;99.90
12520;DHT22;6325;49.540;8.364;2022-08-06T02:29:18;17.90;99.90
12520;DHT22;6325;49.540;8.364;2022-08-06T02:31:48;18.00;99.90
12520;DHT22;6325;49.540;8.364;2022-08-06T02:34:17;18.20;99.90
12520;DHT22;6325;49.540;8.364;2022-08-06T02:36:52;17.40;99.90
12520;DHT22;6325;49.540;8.364;2022-08-06T02:39:23;18.00;99.90
12520;DHT22;6325;49.540;8.364;2022-08-06T02:41:58;17.60;99.90
12520;DHT22;6325;49.540;8.364;2022-08-06T02:44:36;18.30;99.90
12520;DHT22;6325;49.540;8.364;2022-08-06T02:47:09;17.80;99.90
12520;DHT22;6325;49.540;8.364;2022-08-06T02:49:40;18.20;99.90
12520;DHT22;6325;49.540;8.364;2022-08-06T02:52:13;17.80;99.90
12520;DHT22;6325;49.540;8.364;2022-08-06T02:54:44;18.10;99.90
12520;DHT22;6325;49.540;8.364;2022-08-06T02:57:17;17.70;99.90
12520;DHT22;6325;49.540;8.364;2022-08-06T02:59:50;17.70;99.90
12520;DHT22;6325;49.540;8.364;2022-08-06T03:02:22;17.20;99.90
12520;DHT22;6325;49.540;8.364;2022-08-06T03:04:51;17.80;99.90
12520;DHT22;6325;49.540;8.364;2022-08-06T03:07:20;17.90;99.90
12520;DHT22;6325;49.540;8.364;2022-08-06T03:09:48;17.60;99.90
12520;DHT22;6325;49.540;8.364;2022-08-06T03:12:17;17.60;99.90
12520;DHT22;6325;49.540;8.364;2022-08-06T03:14:46;17.40;99.90
12520;DHT22;6325;49.540;8.364;2022-08-06T03:17:15;17.50;99.90
12520;DHT22;6325;49.540;8.364;2022-08-06T03:19:45;17.30;99.90
12520;DHT22;6325;49.540;8.364;2022-08-06T03:22:12;17.70;99.90
12520;DHT22;6325;49.540;8.364;2022-08-06T03:24:42;17.30;99.90
12520;DHT22;6325;49.540;8.364;2022-08-06T03:27:10;17.50;99.90
12520;DHT22;6325;49.540;8.364;2022-08-06T03:29:39;17.10;99.90
12520;DHT22;6325;49.540;8.364;2022-08-06T03:32:07;17.30;99.90
12520;DHT22;6325;49.540;8.364;2022-08-06T03:34:34;17.70;99.90
12520;DHT22;6325;49.540;8.364;2022-08-06T03:37:04;17.30;99.90
12520;DHT22;6325;49.540;8.364;2022-08-06T03:39:32;17.40;99.90
12520;DHT22;6325;49.540;8.364;2022-08-06T03:41:59;17.30;99.90
12520;DHT22;6325;49.540;8.364;2022-08-06T03:44:26;17.30;99.90
12520;DHT22;6325;49.540;8.364;2022-08-06T03:46:57;17.20;99.90
12520;DHT22;6325;49.540;8.364;2022-08-06T03:49:27;17.20;99.90
12520;DHT22;6325;49.540;8.364;2022-08-06T03:51:58;17.20;99.90
12520;DHT22;6325;49.540;8.364;2022-08-06T03:54:31;17.30;99.90
12520;DHT22;6325;49.540;8.364;2022-08-06T03:57:03;17.30;99.90
12520;DHT22;6325;49.540;8.364;2022-08-06T03:59:32;17.10;99.90
12520;DHT22;6325;49.540;8.364;2022-08-06T04:02:01;17.20;99.90
12520;DHT22;6325;49.540;8.364;2022-08-06T04:04:30;17.00;99.90
12520;DHT22;6325;49.540;8.364;2022-08-06T04:06:58;17.10;99.90
12520;DHT22;6325;49.540;8.364;2022-08-06T04:09:30;16.80;99.90
12520;DHT22;6325;49.540;8.364;2022-08-06T04:12:00;17.00;99.90
12520;DHT22;6325;49.540;8.364;2022-08-06T04:14:28;16.40;99.90
12520;DHT22;6325;49.540;8.364;2022-08-06T04:16:56;16.90;99.90
12520;DHT22;6325;49.540;8.364;2022-08-06T04:19:24;16.70;99.90
12520;DHT22;6325;49.540;8.364;2022-08-06T04:21:52;16.90;99.90
12520;DHT22;6325;49.540;8.364;2022-08-06T04:24:18;17.10;99.90
12520;DHT22;6325;49.540;8.364;2022-08-06T04:26:49;17.40;99.90
12520;DHT22;6325;49.540;8.364;2022-08-06T04:29:20;16.70;99.90
12520;DHT22;6325;49.540;8.364;2022-08-06T04:31:49;16.30;99.90
12520;DHT22;6325;49.540;8.364;2022-08-06T04:34:21;16.60;99.90
12520;DHT22;6325;49.540;8.364;2022-08-06T04:36:49;16.90;99.90
12520;DHT22;6325;49.540;8.364;2022-08-06T04:39:18;16.60;99.90
12520;DHT22;6325;49.540;8.364;2022-08-06T04:41:47;16.80;99.90
12520;DHT22;6325;49.540;8.364;2022-08-06T04:44:15;16.30;99.90
12520;DHT22;6325;49.540;8.364;2022-08-06T04:46:42;16.70;99.90
12520;DHT22;6325;49.540;8.364;2022-08-06T04:49:14;17.10;99.90
12520;DHT22;6325;49.540;8.364;2022-08-06T04:51:44;15.90;99.90
12520;DHT22;6325;49.540;8.364;2022-08-06T04:54:11;16.90;99.90
12520;DHT22;6325;49.540;8.364;2022-08-06T04:56:38;16.60;99.90
12520;DHT22;6325;49.540;8.364;2022-08-06T04:59:07;17.00;99.90
12520;DHT22;6325;49.540;8.364;2022-08-06T05:01:34;16.80;99.90
12520;DHT22;6325;49.540;8.364;2022-08-06T05:04:01;16.40;99.90
12520;DHT22;6325;49.540;8.364;2022-08-06T05:06:36;16.40;99.90
12520;DHT22;6325;49.540;8.364;2022-08-06T05:09:11;16.30;99.90
12520;DHT22;6325;49.540;8.364;2022-08-06T05:11:42;16.70;99.90
12520;DHT22;6325;49.540;8.364;2022-08-06T05:14:15;16.00;99.90
12520;DHT22;6325;49.540;8.364;2022-08-06T05:16:45;16.70;99.90
12520;DHT22;6325;49.540;8.364;2022-08-06T05:19:22;16.50;99.90
12520;DHT22;6325;49.540;8.364;2022-08-06T05:21:51;16.70;99.90
12520;DHT22;6325;49.540;8.364;2022-08-06T05:24:18;16.50;99.90
12520;DHT22;6325;49.540;8.364;2022-08-06T05:26:46;17.20;99.90
12520;DHT22;6325;49.540;8.364;2022-08-06T05:29:20;17.00;99.90
12520;DHT22;6325;49.540;8.364;2022-08-06T05:31:47;16.20;99.90
12520;DHT22;6325;49.540;8.364;2022-08-06T05:34:14;16.70;99.90
12520;DHT22;6325;49.540;8.364;2022-08-06T05:36:41;16.60;99.90
12520;DHT22;6325;49.540;8.364;2022-08-06T05:39:08;17.10;99.90
12520;DHT22;6325;49.540;8.364;2022-08-06T05:41:35;17.30;99.90
12520;DHT22;6325;49.540;8.364;2022-08-06T05:44:02;17.10;99.90
12520;DHT22;6325;49.540;8.364;2022-08-06T05:46:33;16.70;99.90
12520;DHT22;6325;49.540;8.364;2022-08-06T05:49:04;17.30;99.90
12520;DHT22;6325;49.540;8.364;2022-08-06T05:51:37;17.10;99.90
12520;DHT22;6325;49.540;8.364;2022-08-06T05:54:11;17.70;99.90
12520;DHT22;6325;49.540;8.364;2022-08-06T05:56:42;17.50;99.90
12520;DHT22;6325;49.540;8.364;2022-08-06T05:59:16;16.80;99.90
12520;DHT22;6325;49.540;8.364;2022-08-06T06:01:45;17.00;99.90
12520;DHT22;6325;49.540;8.364;2022-08-06T06:04:13;17.10;99.90
12520;DHT22;6325;49.540;8.364;2022-08-06T06:06:41;16.90;99.90
12520;DHT22;6325;49.540;8.364;2022-08-06T06:09:09;17.10;99.90
12520;DHT22;6325;49.540;8.364;2022-08-06T06:11:39;16.80;99.90
12520;DHT22;6325;49.540;8.364;2022-08-06T06:14:26;16.90;99.90
12520;DHT22;6325;49.540;8.364;2022-08-06T06:17:04;17.40;99.90
12520;DHT22;6325;49.540;8.364;2022-08-06T06:19:40;17.60;99.90
12520;DHT22;6325;49.540;8.364;2022-08-06T06:22:17;17.60;99.90
12520;DHT22;6325;49.540;8.364;2022-08-06T06:24:54;17.20;99.90
12520;DHT22;6325;49.540;8.364;2022-08-06T06:27:29;17.40;99.90
12520;DHT22;6325;49.540;8.364;2022-08-06T06:30:02;16.90;99.90
12520;DHT22;6325;49.540;8.364;2022-08-06T06:32:41;17.70;99.90
12520;DHT22;6325;49.540;8.364;2022-08-06T06:35:22;17.60;99.90
12520;DHT22;6325;49.540;8.364;2022-08-06T06:37:56;17.60;99.90
12520;DHT22;6325;49.540;8.364;2022-08-06T06:40:38;17.60;99.90
12520;DHT22;6325;49.540;8.364;2022-08-06T06:43:11;18.00;99.90
12520;DHT22;6325;49.540;8.364;2022-08-06T06:45:44;17.90;99.90
12520;DHT22;6325;49.540;8.364;2022-08-06T06:48:19;18.00;99.90
12520;DHT22;6325;49.540;8.364;2022-08-06T06:50:51;17.80;99.90
12520;DHT22;6325;49.540;8.364;2022-08-06T06:53:19;17.90;99.90
12520;DHT22;6325;49.540;8.364;2022-08-06T06:55:50;17.90;99.90
12520;DHT22;6325;49.540;8.364;2022-08-06T06:58:21;17.90;99.90
12520;DHT22;6325;49.540;8.364;2022-08-06T07:00:50;18.10;99.90
12520;DHT22;6325;49.540;8.364;2022-08-06T07:03:19;18.60;99.90
12520;DHT22;6325;49.540;8.364;2022-08-06T07:05:48;18.20;99.90
12520;DHT22;6325;49.540;8.364;2022-08-06T07:08:19;18.20;99.90
12520;DHT22;6325;49.540;8.364;2022-08-06T07:10:47;18.30;99.90
12520;DHT22;6325;49.540;8.364;2022-08-06T07:13:16;18.30;99.90
12520;DHT22;6325;49.540;8.364;2022-08-06T07:15:44;18.40;99.90
12520;DHT22;6325;49.540;8.364;2022-08-06T07:18:11;18.30;99.90
12520;DHT22;6325;49.540;8.364;2022-08-06T07:20:42;18.80;99.90
12520;DHT22;6325;49.540;8.364;2022-08-06T07:23:10;18.60;99.90
12520;DHT22;6325;49.540;8.364;2022-08-06T07:25:40;18.70;99.90
12520;DHT22;6325;49.540;8.364;2022-08-06T07:28:08;18.80;99.90
12520;DHT22;6325;49.540;8.364;2022-08-06T07:30:36;19.00;99.90
12520;DHT22;6325;49.540;8.364;2022-08-06T07:33:04;19.50;99.90
12520;DHT22;6325;49.540;8.364;2022-08-06T07:35:32;18.60;99.90
12520;DHT22;6325;49.540;8.364;2022-08-06T07:38:03;18.60;99.90
12520;DHT22;6325;49.540;8.364;2022-08-06T07:40:33;19.30;99.90
12520;DHT22;6325;49.540;8.364;2022-08-06T07:43:05;18.90;99.90
12520;DHT22;6325;49.540;8.364;2022-08-06T07:45:33;19.40;99.90
12520;DHT22;6325;49.540;8.364;2022-08-06T07:48:03;19.30;99.90
12520;DHT22;6325;49.540;8.364;2022-08-06T07:50:31;19.30;99.90
12520;DHT22;6325;49.540;8.364;2022-08-06T07:52:59;19.30;99.90
12520;DHT22;6325;49.540;8.364;2022-08-06T07:55:27;20.10;99.90
12520;DHT22;6325;49.540;8.364;2022-08-06T07:57:56;19.70;99.90
12520;DHT22;6325;49.540;8.364;2022-08-06T08:00:23;19.60;99.90
12520;DHT22;6325;49.540;8.364;2022-08-06T08:02:50;20.00;99.90
12520;DHT22;6325;49.540;8.364;2022-08-06T08:05:36;20.10;99.90
12520;DHT22;6325;49.540;8.364;2022-08-06T08:08:22;20.20;99.90
12520;DHT22;6325;49.540;8.364;2022-08-06T08:10:51;20.10;99.90
12520;DHT22;6325;49.540;8.364;2022-08-06T08:13:18;20.60;99.90
12520;DHT22;6325;49.540;8.364;2022-08-06T08:15:46;20.40;99.90
12520;DHT22;6325;49.540;8.364;2022-08-06T08:18:13;20.40;99.90
12520;DHT22;6325;49.540;8.364;2022-08-06T08:20:42;21.10;99.90
12520;DHT22;6325;49.540;8.364;2022-08-06T08:23:13;20.70;99.90
12520;DHT22;6325;49.540;8.364;2022-08-06T08:25:41;20.40;99.90
12520;DHT22;6325;49.540;8.364;2022-08-06T08:28:11;20.80;99.90
12520;DHT22;6325;49.540;8.364;2022-08-06T08:30:39;21.60;99.90
12520;DHT22;6325;49.540;8.364;2022-08-06T08:33:05;20.80;99.90
12520;DHT22;6325;49.540;8.364;2022-08-06T08:35:33;21.30;99.90
12520;DHT22;6325;49.540;8.364;2022-08-06T08:38:00;21.30;99.90
12520;DHT22;6325;49.540;8.364;2022-08-06T08:40:28;21.40;99.90
12520;DHT22;6325;49.540;8.364;2022-08-06T08:42:56;21.50;99.90
12520;DHT22;6325;49.540;8.364;2022-08-06T08:45:28;21.50;99.90
12520;DHT22;6325;49.540;8.364;2022-08-06T08:47:57;21.30;99.90
12520;DHT22;6325;49.540;8.364;2022-08-06T08:50:27;21.10;99.90
12520;DHT22;6325;49.540;8.364;2022-08-06T08:53:00;21.70;99.90
12520;DHT22;6325;49.540;8.364;2022-08-06T08:55:28;21.30;99.90
12520;DHT22;6325;49.540;8.364;2022-08-06T08:57:55;22.00;99.90
12520;DHT22;6325;49.540;8.364;2022-08-06T09:00:23;22.10;99.90
12520;DHT22;6325;49.540;8.364;2022-08-06T09:02:51;22.20;99.30
12520;DHT22;6325;49.540;8.364;2022-08-06T09:05:19;22.60;99.60
12520;DHT22;6325;49.540;8.364;2022-08-06T09:07:47;22.00;98.30
12520;DHT22;6325;49.540;8.364;2022-08-06T09:10:14;22.40;98.60
12520;DHT22;6325;49.540;8.364;2022-08-06T09:12:41;22.50;98.30
12520;DHT22;6325;49.540;8.364;2022-08-06T09:15:09;22.40;98.10
12520;DHT22;6325;49.540;8.364;2022-08-06T09:17:36;22.50;98.40
12520;DHT22;6325;49.540;8.364;2022-08-06T09:20:05;22.60;97.40
12520;DHT22;6325;49.540;8.364;2022-08-06T09:22:32;22.50;97.80
12520;DHT22;6325;49.540;8.364;2022-08-06T09:24:59;21.90;97.30
12520;DHT22;6325;49.540;8.364;2022-08-06T09:27:33;22.60;96.60
12520;DHT22;6325;49.540;8.364;2022-08-06T09:30:03;22.40;97.20
12520;DHT22;6325;49.540;8.364;2022-08-06T09:32:41;22.30;97.40
12520;DHT22;6325;49.540;8.364;2022-08-06T09:35:21;23.40;97.90
12520;DHT22;6325;49.540;8.364;2022-08-06T09:37:49;22.90;97.20
12520;DHT22;6325;49.540;8.364;2022-08-06T09:40:19;23.10;94.50
12520;DHT22;6325;49.540;8.364;2022-08-06T09:42:48;22.80;93.90
12520;DHT22;6325;49.540;8.364;2022-08-06T09:45:18;23.10;94.40
12520;DHT22;6325;49.540;8.364;2022-08-06T09:47:46;23.20;94.10
12520;DHT22;6325;49.540;8.364;2022-08-06T09:50:13;23.20;93.50
12520;DHT22;6325;49.540;8.364;2022-08-06T09:52:41;23.20;93.50
12520;DHT22;6325;49.540;8.364;2022-08-06T09:55:28;22.80;92.60
12520;DHT22;6325;49.540;8.364;2022-08-06T09:57:56;23.00;92.20
12520;DHT22;6325;49.540;8.364;2022-08-06T10:00:26;23.90;91.70
12520;DHT22;6325;49.540;8.364;2022-08-06T10:02:57;23.90;91.90
12520;DHT22;6325;49.540;8.364;2022-08-06T10:05:25;23.70;91.60
12520;DHT22;6325;49.540;8.364;2022-08-06T10:08:07;24.00;91.90
12520;DHT22;6325;49.540;8.364;2022-08-06T10:10:43;23.80;92.10
12520;DHT22;6325;49.540;8.364;2022-08-06T10:13:12;23.60;92.50
12520;DHT22;6325;49.540;8.364;2022-08-06T10:15:39;24.10;92.80
12520;DHT22;6325;49.540;8.364;2022-08-06T10:18:06;23.90;92.40
12520;DHT22;6325;49.540;8.364;2022-08-06T10:20:33;24.00;91.70
12520;DHT22;6325;49.540;8.364;2022-08-06T10:23:02;24.30;91.10
12520;DHT22;6325;49.540;8.364;2022-08-06T10:25:29;23.70;91.30
12520;DHT22;6325;49.540;8.364;2022-08-06T10:27:59;24.80;90.70
12520;DHT22;6325;49.540;8.364;2022-08-06T10:30:27;24.50;88.30
12520;DHT22;6325;49.540;8.364;2022-08-06T10:32:59;24.60;90.00
12520;DHT22;6325;49.540;8.364;2022-08-06T10:35:27;24.90;90.10
12520;DHT22;6325;49.540;8.364;2022-08-06T10:37:58;24.60;87.40
12520;DHT22;6325;49.540;8.364;2022-08-06T10:40:28;24.40;86.00
12520;DHT22;6325;49.540;8.364;2022-08-06T10:42:56;24.90;86.90
12520;DHT22;6325;49.540;8.364;2022-08-06T10:45:24;23.80;87.80
12520;DHT22;6325;49.540;8.364;2022-08-06T10:47:52;24.50;88.30
12520;DHT22;6325;49.540;8.364;2022-08-06T10:50:19;24.90;86.40
12520;DHT22;6325;49.540;8.364;2022-08-06T10:52:47;24.50;83.80
12520;DHT22;6325;49.540;8.364;2022-08-06T10:55:14;23.90;81.80
12520;DHT22;6325;49.540;8.364;2022-08-06T10:57:43;24.40;83.40
12520;DHT22;6325;49.540;8.364;2022-08-06T11:00:10;24.20;85.90
12520;DHT22;6325;49.540;8.364;2022-08-06T11:02:42;24.70;83.60
12520;DHT22;6325;49.540;8.364;2022-08-06T11:05:15;24.70;81.10
12520;DHT22;6325;49.540;8.364;2022-08-06T11:08:09;24.90;82.40
12520;DHT22;6325;49.540;8.364;2022-08-06T11:11:17;24.80;82.80
12520;DHT22;6325;49.540;8.364;2022-08-06T11:13:59;24.90;79.70
12520;DHT22;6325;49.540;8.364;2022-08-06T11:16:27;25.10;78.00
12520;DHT22;6325;49.540;8.364;2022-08-06T11:19:03;25.00;77.20
12520;DHT22;6325;49.540;8.364;2022-08-06T11:21:39;25.10;78.60
12520;DHT22;6325;49.540;8.364;2022-08-06T11:24:07;25.30;78.60
12520;DHT22;6325;49.540;8.364;2022-08-06T11:26:36;25.40;78.60
12520;DHT22;6325;49.540;8.364;2022-08-06T11:29:06;25.50;75.70
12520;DHT22;6325;49.540;8.364;2022-08-06T11:31:41;25.40;74.90
12520;DHT22;6325;49.540;8.364;2022-08-06T11:34:12;25.70;75.80
12520;DHT22;6325;49.540;8.364;2022-08-06T11:36:54;25.10;74.70
12520;DHT22;6325;49.540;8.364;2022-08-06T11:39:23;25.70;73.20
12520;DHT22;6325;49.540;8.364;2022-08-06T11:41:53;25.70;72.70
12520;DHT22;6325;49.540;8.364;2022-08-06T11:44:22;26.30;75.40
12520;DHT22;6325;49.540;8.364;2022-08-06T11:46:59;25.60;72.40
12520;DHT22;6325;49.540;8.364;2022-08-06T11:49:37;25.90;72.80
12520;DHT22;6325;49.540;8.364;2022-08-06T11:52:05;26.10;70.00
12520;DHT22;6325;49.540;8.364;2022-08-06T11:54:33;25.70;70.50
12520;DHT22;6325;49.540;8.364;2022-08-06T11:57:22;25.70;69.80
12520;DHT22;6325;49.540;8.364;2022-08-06T12:00:14;25.80;70.40
12520;DHT22;6325;49.540;8.364;2022-08-06T12:02:50;25.90;68.40
12520;DHT22;6325;49.540;8.364;2022-08-06T12:05:36;25.60;69.60
12520;DHT22;6325;49.540;8.364;2022-08-06T12:08:18;25.80;68.40
12520;DHT22;6325;49.540;8.364;2022-08-06T12:14:03;26.20;70.20
12520;DHT22;6325;49.540;8.364;2022-08-06T12:16:34;26.40;67.90
12520;DHT22;6325;49.540;8.364;2022-08-06T12:19:02;26.50;68.80
12520;DHT22;6325;49.540;8.364;2022-08-06T12:21:30;26.20;68.60
12520;DHT22;6325;49.540;8.364;2022-08-06T12:23:57;26.60;66.00
12520;DHT22;6325;49.540;8.364;2022-08-06T12:26:29;27.00;67.70
12520;DHT22;6325;49.540;8.364;2022-08-06T12:29:01;27.00;67.50
12520;DHT22;6325;49.540;8.364;2022-08-06T12:31:32;27.00;64.40
12520;DHT22;6325;49.540;8.364;2022-08-06T12:34:00;26.70;65.80
12520;DHT22;6325;49.540;8.364;2022-08-06T12:36:29;26.70;67.10
12520;DHT22;6325;49.540;8.364;2022-08-06T12:38:57;26.90;68.20
12520;DHT22;6325;49.540;8.364;2022-08-06T12:41:33;27.00;65.90
12520;DHT22;6325;49.540;8.364;2022-08-06T12:44:00;26.90;66.00
12520;DHT22;6325;49.540;8.364;2022-08-06T12:46:27;27.90;69.20
12520;DHT22;6325;49.540;8.364;2022-08-06T12:48:55;27.00;65.00
12520;DHT22;6325;49.540;8.364;2022-08-06T12:51:22;27.70;69.40
12520;DHT22;6325;49.540;8.364;2022-08-06T12:53:51;27.60;65.90
12520;DHT22;6325;49.540;8.364;2022-08-06T12:56:20;27.70;65.20
12520;DHT22;6325;49.540;8.364;2022-08-06T12:58:49;27.90;66.00
12520;DHT22;6325;49.540;8.364;2022-08-06T13:01:18;27.30;64.20
12520;DHT22;6325;49.540;8.364;2022-08-06T13:03:48;27.90;68.70
12520;DHT22;6325;49.540;8.364;2022-08-06T13:06:19;27.80;67.50
12520;DHT22;6325;49.540;8.364;2022-08-06T13:08:48;27.60;66.10
12520;DHT22;6325;49.540;8.364;2022-08-06T13:11:16;27.50;63.60
12520;DHT22;6325;49.540;8.364;2022-08-06T13:13:46;27.50;63.60
12520;DHT22;6325;49.540;8.364;2022-08-06T13:16:14;27.40;64.00
12520;DHT22;6325;49.540;8.364;2022-08-06T13:18:42;27.50;66.20
12520;DHT22;6325;49.540;8.364;2022-08-06T13:21:18;27.70;65.20
12520;DHT22;6325;49.540;8.364;2022-08-06T13:23:46;27.80;64.20
12520;DHT22;6325;49.540;8.364;2022-08-06T13:26:16;27.90;64.20
12520;DHT22;6325;49.540;8.364;2022-08-06T13:29:04;27.80;65.80
12520;DHT22;6325;49.540;8.364;2022-08-06T13:31:31;28.00;65.00
12520;DHT22;6325;49.540;8.364;2022-08-06T13:33:59;28.30;65.60
12520;DHT22;6325;49.540;8.364;2022-08-06T13:36:29;28.20;62.20
12520;DHT22;6325;49.540;8.364;2022-08-06T13:38:57;28.20;60.80
12520;DHT22;6325;49.540;8.364;2022-08-06T13:41:29;28.10;62.80
12520;DHT22;6325;49.540;8.364;2022-08-06T13:43:58;28.10;64.00
12520;DHT22;6325;49.540;8.364;2022-08-06T13:46:26;28.20;63.40
12520;DHT22;6325;49.540;8.364;2022-08-06T13:48:55;28.20;61.60
12520;DHT22;6325;49.540;8.364;2022-08-06T13:51:23;28.30;64.50
12520;DHT22;6325;49.540;8.364;2022-08-06T13:53:51;28.40;61.70
12520;DHT22;6325;49.540;8.364;2022-08-06T13:56:18;28.60;60.80
12520;DHT22;6325;49.540;8.364;2022-08-06T13:58:45;28.60;58.50
12520;DHT22;6325;49.540;8.364;2022-08-06T14:01:13;28.50;58.60
12520;DHT22;6325;49.540;8.364;2022-08-06T14:03:40;28.40;59.00
12520;DHT22;6325;49.540;8.364;2022-08-06T14:06:07;28.60;61.50
12520;DHT22;6325;49.540;8.364;2022-08-06T14:08:34;28.70;58.10
12520;DHT22;6325;49.540;8.364;2022-08-06T14:11:02;28.50;58.90
12520;DHT22;6325;49.540;8.364;2022-08-06T14:13:29;28.80;60.50
12520;DHT22;6325;49.540;8.364;2022-08-06T14:15:57;28.60;61.60
12520;DHT22;6325;49.540;8.364;2022-08-06T14:18:26;29.00;58.80
12520;DHT22;6325;49.540;8.364;2022-08-06T14:20:54;29.00;56.30
12520;DHT22;6325;49.540;8.364;2022-08-06T14:23:21;29.10;56.80
12520;DHT22;6325;49.540;8.364;2022-08-06T14:25:48;28.70;57.50
12520;DHT22;6325;49.540;8.364;2022-08-06T14:28:17;28.60;57.20
12520;DHT22;6325;49.540;8.364;2022-08-06T14:30:45;28.90;60.00
12520;DHT22;6325;49.540;8.364;2022-08-06T14:33:12;28.70;57.80
12520;DHT22;6325;49.540;8.364;2022-08-06T14:35:40;29.00;57.30
12520;DHT22;6325;49.540;8.364;2022-08-06T14:38:07;28.70;57.80
12520;DHT22;6325;49.540;8.364;2022-08-06T14:40:36;28.70;56.30
12520;DHT22;6325;49.540;8.364;2022-08-06T14:43:22;29.00;56.00
12520;DHT22;6325;49.540;8.364;2022-08-06T14:46:06;29.10;55.50
12520;DHT22;6325;49.540;8.364;2022-08-06T14:48:33;28.80;58.00
12520;DHT22;6325;49.540;8.364;2022-08-06T14:51:01;28.60;57.00
12520;DHT22;6325;49.540;8.364;2022-08-06T14:53:28;28.90;56.80
12520;DHT22;6325;49.540;8.364;2022-08-06T14:55:54;29.30;57.00
12520;DHT22;6325;49.540;8.364;2022-08-06T14:58:23;29.70;58.20
12520;DHT22;6325;49.540;8.364;2022-08-06T15:00:50;29.90;55.10
12520;DHT22;6325;49.540;8.364;2022-08-06T15:03:17;29.30;54.70
12520;DHT22;6325;49.540;8.364;2022-08-06T15:05:44;29.10;54.60
12520;DHT22;6325;49.540;8.364;2022-08-06T15:08:12;28.90;56.50
12520;DHT22;6325;49.540;8.364;2022-08-06T15:10:39;29.30;56.10
12520;DHT22;6325;49.540;8.364;2022-08-06T15:13:06;29.20;55.90
12520;DHT22;6325;49.540;8.364;2022-08-06T15:15:35;29.80;57.70
12520;DHT22;6325;49.540;8.364;2022-08-06T15:18:02;29.70;56.40
12520;DHT22;6325;49.540;8.364;2022-08-06T15:20:29;29.90;56.20
12520;DHT22;6325;49.540;8.364;2022-08-06T15:22:56;30.50;54.70
12520;DHT22;6325;49.540;8.364;2022-08-06T15:25:23;30.70;53.80
12520;DHT22;6325;49.540;8.364;2022-08-06T15:27:50;31.50;54.60
12520;DHT22;6325;49.540;8.364;2022-08-06T15:30:17;31.70;52.30
12520;DHT22;6325;49.540;8.364;2022-08-06T15:32:45;31.80;51.90
12520;DHT22;6325;49.540;8.364;2022-08-06T15:35:13;31.60;50.90
12520;DHT22;6325;49.540;8.364;2022-08-06T15:37:40;31.20;52.30
12520;DHT22;6325;49.540;8.364;2022-08-06T15:40:08;31.00;52.80
12520;DHT22;6325;49.540;8.364;2022-08-06T15:42:35;31.20;53.00
12520;DHT22;6325;49.540;8.364;2022-08-06T15:45:02;31.60;50.70
12520;DHT22;6325;49.540;8.364;2022-08-06T15:47:29;32.00;49.80
12520;DHT22;6325;49.540;8.364;2022-08-06T15:49:58;31.90;49.60
12520;DHT22;6325;49.540;8.364;2022-08-06T15:52:25;32.50;49.70
12520;DHT22;6325;49.540;8.364;2022-08-06T15:54:53;32.90;50.30
12520;DHT22;6325;49.540;8.364;2022-08-06T15:57:20;31.80;48.40
12520;DHT22;6325;49.540;8.364;2022-08-06T15:59:48;31.90;49.50
12520;DHT22;6325;49.540;8.364;2022-08-06T16:02:15;31.70;50.10
12520;DHT22;6325;49.540;8.364;2022-08-06T16:04:42;31.70;48.90
12520;DHT22;6325;49.540;8.364;2022-08-06T16:07:10;32.50;48.50